KAXS

Altus / Quartz Mountain Regional Airport

Altus, Oklahoma, USA
METAR KAXS 210415Z AUTO 14004KT 10SM CLR 32/09 A2991 RMK AO2 T03240091
Observed Flight Rules
Jul-21 @ 04:15 UTC (8 minutes ago) Visual Flight Rules
Wind Visibility Clouds
140° at 4 knots 10 miles
  • Clear skies
Temperatures Readings
Current 32°C / 90°F
Dewpoint 9°C / 48°F
Humidity 24%
Altimeter 29.91" Hg
Pressure 1013 hPa
Elevation 437
METAR KAXS 210415Z AUTO 14004KT 10SM CLR 32/09 A2991 RMK AO2 T03240091
Observed Flight Rules
Jul-21 @ 04:15 UTC
(8 minutes ago)
VFR
Wind Visibility
140° at 4 knots 10 miles
Clouds
  • Clear skies
Temperature Dewpoint
32°C / 90°F 9°C / 48°F
Humidity Altimeter Pressure
24% 29.91" Hg 1013 hPa